sensor_id;sensor_type;location;lat;lon;timestamp;P1;durP1;ratioP1;P2;durP2;ratioP2
43877;SDS011;29815;48.184;11.268;2022-11-23T12:25:28;4.55;;;0.85;;
43877;SDS011;29815;48.184;11.268;2022-11-23T12:28:08;1.58;;;0.98;;
43877;SDS011;29815;48.184;11.268;2022-11-23T12:31:02;4.32;;;0.93;;
43877;SDS011;29815;48.184;11.268;2022-11-23T12:36:49;3.45;;;1.00;;
43877;SDS011;29815;48.184;11.268;2022-11-23T12:40:02;2.92;;;1.00;;
43877;SDS011;29815;48.184;11.268;2022-11-23T12:42:59;2.92;;;1.00;;
43877;SDS011;29815;48.184;11.268;2022-11-23T12:45:38;2.72;;;0.80;;
43877;SDS011;29815;48.184;11.268;2022-11-23T12:48:25;3.45;;;0.75;;
43877;SDS011;29815;48.184;11.268;2022-11-23T12:51:15;3.25;;;0.88;;
43877;SDS011;29815;48.184;11.268;2022-11-23T12:54:01;2.72;;;1.00;;
43877;SDS011;29815;48.184;11.268;2022-11-23T12:57:09;2.60;;;0.70;;
43877;SDS011;29815;48.184;11.268;2022-11-23T12:59:49;2.15;;;0.95;;
43877;SDS011;29815;48.184;11.268;2022-11-23T13:02:37;4.15;;;0.90;;
43877;SDS011;29815;48.184;11.268;2022-11-23T13:05:49;2.63;;;0.85;;
43877;SDS011;29815;48.184;11.268;2022-11-23T13:08:51;4.47;;;1.00;;
43877;SDS011;29815;48.184;11.268;2022-11-23T13:11:53;2.85;;;0.80;;
43877;SDS011;29815;48.184;11.268;2022-11-23T13:14:55;2.08;;;0.70;;
43877;SDS011;29815;48.184;11.268;2022-11-23T13:17:45;3.08;;;0.60;;
43877;SDS011;29815;48.184;11.268;2022-11-23T13:20:27;4.05;;;0.75;;
43877;SDS011;29815;48.184;11.268;2022-11-23T13:23:17;3.60;;;1.00;;
43877;SDS011;29815;48.184;11.268;2022-11-23T13:28:48;4.47;;;0.80;;
43877;SDS011;29815;48.184;11.268;2022-11-23T13:31:20;2.78;;;0.93;;
43877;SDS011;29815;48.184;11.268;2022-11-23T13:33:54;3.20;;;0.95;;
43877;SDS011;29815;48.184;11.268;2022-11-23T13:36:38;3.72;;;1.00;;
43877;SDS011;29815;48.184;11.268;2022-11-23T13:42:32;8.23;;;3.53;;
43877;SDS011;29815;48.184;11.268;2022-11-23T13:48:11;3.22;;;1.85;;
43877;SDS011;29815;48.184;11.268;2022-11-23T13:51:06;3.90;;;1.52;;
43877;SDS011;29815;48.184;11.268;2022-11-23T13:53:37;3.65;;;0.95;;
43877;SDS011;29815;48.184;11.268;2022-11-23T13:59:24;2.42;;;1.17;;
43877;SDS011;29815;48.184;11.268;2022-11-23T14:08:18;2.05;;;0.60;;
43877;SDS011;29815;48.184;11.268;2022-11-23T14:10:49;2.78;;;0.63;;
43877;SDS011;29815;48.184;11.268;2022-11-23T14:13:20;3.47;;;1.15;;
43877;SDS011;29815;48.184;11.268;2022-11-23T14:16:00;1.38;;;0.75;;
43877;SDS011;29815;48.184;11.268;2022-11-23T14:18:40;2.17;;;0.65;;
43877;SDS011;29815;48.184;11.268;2022-11-23T14:21:30;1.42;;;0.70;;
43877;SDS011;29815;48.184;11.268;2022-11-23T14:24:20;1.05;;;0.80;;
43877;SDS011;29815;48.184;11.268;2022-11-23T14:27:29;2.38;;;1.13;;
43877;SDS011;29815;48.184;11.268;2022-11-23T14:30:19;2.50;;;0.70;;
43877;SDS011;29815;48.184;11.268;2022-11-23T14:33:05;2.10;;;0.98;;
43877;SDS011;29815;48.184;11.268;2022-11-23T14:35:52;3.25;;;1.00;;
43877;SDS011;29815;48.184;11.268;2022-11-23T14:38:45;1.65;;;0.80;;
43877;SDS011;29815;48.184;11.268;2022-11-23T14:45:26;2.25;;;0.90;;
43877;SDS011;29815;48.184;11.268;2022-11-23T14:50:55;2.55;;;0.90;;
43877;SDS011;29815;48.184;11.268;2022-11-23T14:53:27;14.55;;;9.68;;
43877;SDS011;29815;48.184;11.268;2022-11-23T14:56:00;2.60;;;1.27;;
43877;SDS011;29815;48.184;11.268;2022-11-23T14:58:30;3.35;;;1.10;;
43877;SDS011;29815;48.184;11.268;2022-11-23T15:01:01;2.97;;;0.82;;
43877;SDS011;29815;48.184;11.268;2022-11-23T15:03:31;4.90;;;1.20;;
43877;SDS011;29815;48.184;11.268;2022-11-23T15:06:18;4.90;;;1.83;;
43877;SDS011;29815;48.184;11.268;2022-11-23T15:08:56;3.72;;;1.13;;
43877;SDS011;29815;48.184;11.268;2022-11-23T15:11:36;5.47;;;1.20;;
43877;SDS011;29815;48.184;11.268;2022-11-23T15:14:15;4.22;;;1.40;;
43877;SDS011;29815;48.184;11.268;2022-11-23T15:16:48;4.28;;;0.93;;
43877;SDS011;29815;48.184;11.268;2022-11-23T15:19:18;3.63;;;1.00;;
43877;SDS011;29815;48.184;11.268;2022-11-23T15:21:57;2.88;;;1.10;;
43877;SDS011;29815;48.184;11.268;2022-11-23T15:24:28;3.10;;;1.10;;
43877;SDS011;29815;48.184;11.268;2022-11-23T15:27:18;2.38;;;1.58;;
43877;SDS011;29815;48.184;11.268;2022-11-23T15:30:00;5.95;;;1.80;;
43877;SDS011;29815;48.184;11.268;2022-11-23T15:32:30;3.58;;;1.83;;
43877;SDS011;29815;48.184;11.268;2022-11-23T15:35:02;4.35;;;1.85;;
43877;SDS011;29815;48.184;11.268;2022-11-23T15:37:41;3.40;;;2.13;;
43877;SDS011;29815;48.184;11.268;2022-11-23T15:40:14;8.75;;;2.63;;
43877;SDS011;29815;48.184;11.268;2022-11-23T15:42:46;7.88;;;2.88;;
43877;SDS011;29815;48.184;11.268;2022-11-23T15:45:37;5.15;;;2.65;;
43877;SDS011;29815;48.184;11.268;2022-11-23T15:48:29;6.82;;;3.25;;
43877;SDS011;29815;48.184;11.268;2022-11-23T15:51:03;6.85;;;2.70;;
43877;SDS011;29815;48.184;11.268;2022-11-23T15:53:42;7.18;;;2.72;;
43877;SDS011;29815;48.184;11.268;2022-11-23T15:56:19;6.63;;;3.03;;
43877;SDS011;29815;48.184;11.268;2022-11-23T15:58:53;7.60;;;2.63;;
43877;SDS011;29815;48.184;11.268;2022-11-23T16:01:23;5.80;;;2.38;;
43877;SDS011;29815;48.184;11.268;2022-11-23T16:03:53;5.30;;;1.77;;
43877;SDS011;29815;48.184;11.268;2022-11-23T16:06:35;6.22;;;2.80;;
43877;SDS011;29815;48.184;11.268;2022-11-23T16:12:24;15.23;;;7.20;;
43877;SDS011;29815;48.184;11.268;2022-11-23T16:14:56;15.20;;;8.65;;
43877;SDS011;29815;48.184;11.268;2022-11-23T16:18:05;19.65;;;9.65;;
43877;SDS011;29815;48.184;11.268;2022-11-23T16:20:52;16.70;;;11.38;;
43877;SDS011;29815;48.184;11.268;2022-11-23T16:23:26;20.95;;;12.30;;
43877;SDS011;29815;48.184;11.268;2022-11-23T16:26:03;17.90;;;11.85;;
43877;SDS011;29815;48.184;11.268;2022-11-23T16:28:35;21.40;;;12.32;;
43877;SDS011;29815;48.184;11.268;2022-11-23T16:34:00;16.80;;;9.07;;
43877;SDS011;29815;48.184;11.268;2022-11-23T16:36:33;12.63;;;7.60;;
43877;SDS011;29815;48.184;11.268;2022-11-23T16:39:02;12.57;;;5.65;;
43877;SDS011;29815;48.184;11.268;2022-11-23T16:41:32;10.93;;;6.18;;
43877;SDS011;29815;48.184;11.268;2022-11-23T16:44:02;9.68;;;5.28;;
43877;SDS011;29815;48.184;11.268;2022-11-23T16:46:32;9.80;;;4.20;;
43877;SDS011;29815;48.184;11.268;2022-11-23T16:49:13;5.35;;;3.03;;
43877;SDS011;29815;48.184;11.268;2022-11-23T16:51:47;7.20;;;4.07;;
43877;SDS011;29815;48.184;11.268;2022-11-23T16:54:23;7.30;;;4.63;;
43877;SDS011;29815;48.184;11.268;2022-11-23T16:56:53;8.70;;;3.05;;
43877;SDS011;29815;48.184;11.268;2022-11-23T16:59:22;5.05;;;3.22;;
43877;SDS011;29815;48.184;11.268;2022-11-23T17:01:52;7.75;;;3.88;;
43877;SDS011;29815;48.184;11.268;2022-11-23T17:04:25;6.88;;;3.47;;
43877;SDS011;29815;48.184;11.268;2022-11-23T17:06:55;10.25;;;5.53;;
43877;SDS011;29815;48.184;11.268;2022-11-23T17:09:24;6.78;;;4.00;;
43877;SDS011;29815;48.184;11.268;2022-11-23T17:11:53;5.97;;;3.50;;
43877;SDS011;29815;48.184;11.268;2022-11-23T17:14:23;7.78;;;3.70;;
43877;SDS011;29815;48.184;11.268;2022-11-23T17:16:56;9.45;;;5.68;;
43877;SDS011;29815;48.184;11.268;2022-11-23T17:19:29;7.40;;;4.13;;
43877;SDS011;29815;48.184;11.268;2022-11-23T17:21:59;12.65;;;8.25;;
43877;SDS011;29815;48.184;11.268;2022-11-23T17:24:29;7.47;;;4.40;;
43877;SDS011;29815;48.184;11.268;2022-11-23T17:26:59;6.95;;;5.28;;
43877;SDS011;29815;48.184;11.268;2022-11-23T17:29:28;7.30;;;4.75;;
43877;SDS011;29815;48.184;11.268;2022-11-23T17:31:59;7.60;;;3.80;;
43877;SDS011;29815;48.184;11.268;2022-11-23T17:34:32;5.32;;;4.25;;
43877;SDS011;29815;48.184;11.268;2022-11-23T17:37:01;9.75;;;4.35;;
43877;SDS011;29815;48.184;11.268;2022-11-23T17:39:31;8.07;;;4.75;;
43877;SDS011;29815;48.184;11.268;2022-11-23T17:42:02;6.57;;;4.15;;
43877;SDS011;29815;48.184;11.268;2022-11-23T17:44:31;7.57;;;3.97;;
43877;SDS011;29815;48.184;11.268;2022-11-23T17:47:01;5.43;;;2.97;;
43877;SDS011;29815;48.184;11.268;2022-11-23T17:49:32;9.15;;;4.80;;
43877;SDS011;29815;48.184;11.268;2022-11-23T17:52:02;26.90;;;19.75;;
43877;SDS011;29815;48.184;11.268;2022-11-23T17:54:32;9.15;;;6.68;;
43877;SDS011;29815;48.184;11.268;2022-11-23T17:57:02;8.77;;;7.57;;
43877;SDS011;29815;48.184;11.268;2022-11-23T17:59:31;8.90;;;5.75;;
43877;SDS011;29815;48.184;11.268;2022-11-23T18:02:01;14.13;;;9.27;;
43877;SDS011;29815;48.184;11.268;2022-11-23T18:04:31;12.25;;;6.20;;
43877;SDS011;29815;48.184;11.268;2022-11-23T18:07:02;7.65;;;5.78;;
43877;SDS011;29815;48.184;11.268;2022-11-23T18:09:32;7.05;;;4.72;;
43877;SDS011;29815;48.184;11.268;2022-11-23T18:12:02;12.10;;;7.10;;
43877;SDS011;29815;48.184;11.268;2022-11-23T18:14:31;7.22;;;5.10;;
43877;SDS011;29815;48.184;11.268;2022-11-23T18:17:01;8.40;;;4.70;;
43877;SDS011;29815;48.184;11.268;2022-11-23T18:19:31;5.28;;;4.00;;
43877;SDS011;29815;48.184;11.268;2022-11-23T18:22:02;5.85;;;3.95;;
43877;SDS011;29815;48.184;11.268;2022-11-23T18:24:31;5.03;;;3.63;;
43877;SDS011;29815;48.184;11.268;2022-11-23T18:27:01;5.15;;;3.55;;
43877;SDS011;29815;48.184;11.268;2022-11-23T18:29:30;7.05;;;3.38;;
43877;SDS011;29815;48.184;11.268;2022-11-23T18:32:00;10.55;;;4.38;;
43877;SDS011;29815;48.184;11.268;2022-11-23T18:34:30;7.25;;;4.70;;
43877;SDS011;29815;48.184;11.268;2022-11-23T18:37:02;21.40;;;11.48;;
43877;SDS011;29815;48.184;11.268;2022-11-23T18:39:31;8.15;;;5.18;;
43877;SDS011;29815;48.184;11.268;2022-11-23T18:42:01;7.68;;;5.85;;
43877;SDS011;29815;48.184;11.268;2022-11-23T18:44:32;9.88;;;6.68;;
43877;SDS011;29815;48.184;11.268;2022-11-23T18:47:02;9.57;;;5.70;;
43877;SDS011;29815;48.184;11.268;2022-11-23T18:49:33;7.85;;;5.82;;
43877;SDS011;29815;48.184;11.268;2022-11-23T18:52:03;8.18;;;5.35;;
43877;SDS011;29815;48.184;11.268;2022-11-23T18:54:32;12.80;;;5.90;;
43877;SDS011;29815;48.184;11.268;2022-11-23T18:57:02;8.13;;;5.43;;
43877;SDS011;29815;48.184;11.268;2022-11-23T18:59:32;8.38;;;6.43;;
43877;SDS011;29815;48.184;11.268;2022-11-23T19:02:21;9.30;;;5.85;;
43877;SDS011;29815;48.184;11.268;2022-11-23T19:04:52;11.60;;;7.05;;
43877;SDS011;29815;48.184;11.268;2022-11-23T19:07:21;8.00;;;5.72;;
43877;SDS011;29815;48.184;11.268;2022-11-23T19:09:53;12.52;;;7.07;;
43877;SDS011;29815;48.184;11.268;2022-11-23T19:12:23;7.18;;;4.55;;
43877;SDS011;29815;48.184;11.268;2022-11-23T19:14:52;4.78;;;3.40;;
43877;SDS011;29815;48.184;11.268;2022-11-23T19:17:22;4.22;;;2.80;;
43877;SDS011;29815;48.184;11.268;2022-11-23T19:19:52;5.78;;;3.10;;
43877;SDS011;29815;48.184;11.268;2022-11-23T19:22:22;3.40;;;2.42;;
43877;SDS011;29815;48.184;11.268;2022-11-23T19:24:51;3.05;;;2.10;;
43877;SDS011;29815;48.184;11.268;2022-11-23T19:27:21;4.00;;;1.92;;
43877;SDS011;29815;48.184;11.268;2022-11-23T19:29:50;2.38;;;1.42;;
43877;SDS011;29815;48.184;11.268;2022-11-23T19:32:20;5.07;;;1.73;;
43877;SDS011;29815;48.184;11.268;2022-11-23T19:34:49;3.08;;;1.50;;
43877;SDS011;29815;48.184;11.268;2022-11-23T19:37:21;2.42;;;1.40;;
43877;SDS011;29815;48.184;11.268;2022-11-23T19:39:50;2.53;;;1.30;;
43877;SDS011;29815;48.184;11.268;2022-11-23T19:42:20;2.45;;;1.83;;
43877;SDS011;29815;48.184;11.268;2022-11-23T19:44:49;3.45;;;1.33;;
43877;SDS011;29815;48.184;11.268;2022-11-23T19:47:18;2.60;;;1.20;;
43877;SDS011;29815;48.184;11.268;2022-11-23T19:49:49;2.40;;;1.15;;
43877;SDS011;29815;48.184;11.268;2022-11-23T19:52:19;3.40;;;1.15;;
43877;SDS011;29815;48.184;11.268;2022-11-23T19:55:08;1.65;;;1.02;;
43877;SDS011;29815;48.184;11.268;2022-11-23T19:57:37;6.93;;;1.85;;
43877;SDS011;29815;48.184;11.268;2022-11-23T20:00:07;2.90;;;1.40;;
43877;SDS011;29815;48.184;11.268;2022-11-23T20:02:39;3.15;;;1.70;;
43877;SDS011;29815;48.184;11.268;2022-11-23T20:05:08;2.60;;;2.00;;
43877;SDS011;29815;48.184;11.268;2022-11-23T20:07:40;3.03;;;1.60;;
43877;SDS011;29815;48.184;11.268;2022-11-23T20:10:11;3.78;;;1.60;;
43877;SDS011;29815;48.184;11.268;2022-11-23T20:12:40;2.97;;;1.73;;
43877;SDS011;29815;48.184;11.268;2022-11-23T20:15:10;4.80;;;2.42;;
43877;SDS011;29815;48.184;11.268;2022-11-23T20:17:39;6.90;;;2.33;;
43877;SDS011;29815;48.184;11.268;2022-11-23T20:20:11;3.72;;;2.15;;
43877;SDS011;29815;48.184;11.268;2022-11-23T20:22:42;3.08;;;2.22;;
43877;SDS011;29815;48.184;11.268;2022-11-23T20:25:12;3.95;;;2.35;;
43877;SDS011;29815;48.184;11.268;2022-11-23T20:27:41;3.58;;;2.13;;
43877;SDS011;29815;48.184;11.268;2022-11-23T20:30:11;3.67;;;2.38;;
43877;SDS011;29815;48.184;11.268;2022-11-23T20:32:41;3.50;;;2.20;;
43877;SDS011;29815;48.184;11.268;2022-11-23T20:35:14;2.85;;;2.10;;
43877;SDS011;29815;48.184;11.268;2022-11-23T20:37:45;2.95;;;2.13;;
43877;SDS011;29815;48.184;11.268;2022-11-23T20:40:15;3.28;;;2.28;;
43877;SDS011;29815;48.184;11.268;2022-11-23T20:42:45;3.33;;;2.13;;
43877;SDS011;29815;48.184;11.268;2022-11-23T20:45:15;3.65;;;2.65;;
43877;SDS011;29815;48.184;11.268;2022-11-23T20:47:45;2.85;;;1.88;;
43877;SDS011;29815;48.184;11.268;2022-11-23T20:50:15;3.28;;;1.67;;
43877;SDS011;29815;48.184;11.268;2022-11-23T20:52:46;1.88;;;1.60;;
43877;SDS011;29815;48.184;11.268;2022-11-23T20:55:15;3.28;;;1.80;;
43877;SDS011;29815;48.184;11.268;2022-11-23T20:57:50;1.95;;;1.50;;
43877;SDS011;29815;48.184;11.268;2022-11-23T21:00:20;2.85;;;1.98;;
43877;SDS011;29815;48.184;11.268;2022-11-23T21:02:51;3.33;;;2.22;;
43877;SDS011;29815;48.184;11.268;2022-11-23T21:05:23;2.85;;;1.95;;
43877;SDS011;29815;48.184;11.268;2022-11-23T21:07:53;3.90;;;1.83;;
43877;SDS011;29815;48.184;11.268;2022-11-23T21:10:23;4.15;;;1.88;;
43877;SDS011;29815;48.184;11.268;2022-11-23T21:13:12;2.25;;;1.58;;
43877;SDS011;29815;48.184;11.268;2022-11-23T21:16:15;2.55;;;2.00;;
43877;SDS011;29815;48.184;11.268;2022-11-23T21:18:45;2.60;;;1.58;;
43877;SDS011;29815;48.184;11.268;2022-11-23T21:21:14;3.30;;;2.50;;
43877;SDS011;29815;48.184;11.268;2022-11-23T21:23:45;2.42;;;1.90;;
43877;SDS011;29815;48.184;11.268;2022-11-23T21:26:18;2.28;;;1.50;;
43877;SDS011;29815;48.184;11.268;2022-11-23T21:28:48;2.67;;;2.20;;
43877;SDS011;29815;48.184;11.268;2022-11-23T21:31:18;3.30;;;3.00;;
43877;SDS011;29815;48.184;11.268;2022-11-23T21:33:47;3.00;;;1.95;;
43877;SDS011;29815;48.184;11.268;2022-11-23T21:36:20;2.70;;;2.10;;
43877;SDS011;29815;48.184;11.268;2022-11-23T21:38:51;3.13;;;2.40;;
43877;SDS011;29815;48.184;11.268;2022-11-23T21:41:20;3.85;;;2.72;;
43877;SDS011;29815;48.184;11.268;2022-11-23T21:43:52;4.57;;;2.53;;
43877;SDS011;29815;48.184;11.268;2022-11-23T21:46:22;2.60;;;2.40;;
43877;SDS011;29815;48.184;11.268;2022-11-23T21:48:53;4.38;;;2.85;;
43877;SDS011;29815;48.184;11.268;2022-11-23T21:51:26;4.80;;;2.87;;
43877;SDS011;29815;48.184;11.268;2022-11-23T21:53:59;5.75;;;2.72;;
43877;SDS011;29815;48.184;11.268;2022-11-23T21:56:31;4.82;;;2.88;;
43877;SDS011;29815;48.184;11.268;2022-11-23T21:59:01;3.78;;;3.28;;
43877;SDS011;29815;48.184;11.268;2022-11-23T22:01:31;3.67;;;2.67;;
43877;SDS011;29815;48.184;11.268;2022-11-23T22:04:03;3.45;;;3.13;;
43877;SDS011;29815;48.184;11.268;2022-11-23T22:09:09;4.90;;;3.42;;
43877;SDS011;29815;48.184;11.268;2022-11-23T22:11:40;4.95;;;2.80;;
43877;SDS011;29815;48.184;11.268;2022-11-23T22:14:12;3.72;;;3.08;;
43877;SDS011;29815;48.184;11.268;2022-11-23T22:16:46;5.88;;;2.90;;
43877;SDS011;29815;48.184;11.268;2022-11-23T22:19:17;5.03;;;3.45;;
43877;SDS011;29815;48.184;11.268;2022-11-23T22:21:46;4.20;;;3.25;;
43877;SDS011;29815;48.184;11.268;2022-11-23T22:24:18;3.92;;;2.92;;
43877;SDS011;29815;48.184;11.268;2022-11-23T22:26:48;7.40;;;2.70;;
43877;SDS011;29815;48.184;11.268;2022-11-23T22:29:18;5.00;;;3.10;;
43877;SDS011;29815;48.184;11.268;2022-11-23T22:31:48;6.38;;;2.63;;
43877;SDS011;29815;48.184;11.268;2022-11-23T22:34:18;6.22;;;2.75;;
43877;SDS011;29815;48.184;11.268;2022-11-23T22:36:48;4.63;;;2.60;;
43877;SDS011;29815;48.184;11.268;2022-11-23T22:39:20;5.25;;;2.50;;
43877;SDS011;29815;48.184;11.268;2022-11-23T22:41:49;4.78;;;3.03;;
43877;SDS011;29815;48.184;11.268;2022-11-23T22:44:19;5.47;;;2.50;;
43877;SDS011;29815;48.184;11.268;2022-11-23T22:46:48;3.78;;;2.67;;
43877;SDS011;29815;48.184;11.268;2022-11-23T22:49:18;4.57;;;2.72;;
43877;SDS011;29815;48.184;11.268;2022-11-23T22:51:47;5.18;;;3.05;;
43877;SDS011;29815;48.184;11.268;2022-11-23T22:54:16;4.43;;;2.80;;
43877;SDS011;29815;48.184;11.268;2022-11-23T22:56:47;7.38;;;2.95;;
43877;SDS011;29815;48.184;11.268;2022-11-23T22:59:17;6.72;;;2.92;;
43877;SDS011;29815;48.184;11.268;2022-11-23T23:01:46;5.18;;;2.05;;
43877;SDS011;29815;48.184;11.268;2022-11-23T23:04:16;4.75;;;2.53;;
43877;SDS011;29815;48.184;11.268;2022-11-23T23:06:45;4.65;;;2.88;;
43877;SDS011;29815;48.184;11.268;2022-11-23T23:09:16;4.93;;;2.90;;
43877;SDS011;29815;48.184;11.268;2022-11-23T23:11:47;4.90;;;2.80;;
43877;SDS011;29815;48.184;11.268;2022-11-23T23:14:17;3.50;;;1.90;;
43877;SDS011;29815;48.184;11.268;2022-11-23T23:16:46;5.35;;;2.75;;
43877;SDS011;29815;48.184;11.268;2022-11-23T23:19:16;5.03;;;2.60;;
43877;SDS011;29815;48.184;11.268;2022-11-23T23:21:46;6.40;;;2.15;;
43877;SDS011;29815;48.184;11.268;2022-11-23T23:24:15;5.03;;;2.28;;
43877;SDS011;29815;48.184;11.268;2022-11-23T23:26:45;5.45;;;2.38;;
43877;SDS011;29815;48.184;11.268;2022-11-23T23:29:16;8.60;;;2.65;;
43877;SDS011;29815;48.184;11.268;2022-11-23T23:31:45;3.50;;;2.35;;
43877;SDS011;29815;48.184;11.268;2022-11-23T23:34:15;4.15;;;2.28;;
43877;SDS011;29815;48.184;11.268;2022-11-23T23:36:45;4.63;;;1.70;;
43877;SDS011;29815;48.184;11.268;2022-11-23T23:39:14;3.80;;;2.15;;
43877;SDS011;29815;48.184;11.268;2022-11-23T23:41:44;4.70;;;2.05;;
43877;SDS011;29815;48.184;11.268;2022-11-23T23:44:13;4.97;;;3.28;;
43877;SDS011;29815;48.184;11.268;2022-11-23T23:46:45;4.23;;;1.90;;
43877;SDS011;29815;48.184;11.268;2022-11-23T23:49:15;4.35;;;2.08;;
43877;SDS011;29815;48.184;11.268;2022-11-23T23:51:44;3.95;;;2.10;;
43877;SDS011;29815;48.184;11.268;2022-11-23T23:54:18;4.28;;;2.25;;
43877;SDS011;29815;48.184;11.268;2022-11-23T23:56:47;3.85;;;2.13;;
43877;SDS011;29815;48.184;11.268;2022-11-23T23:59:18;3.80;;;2.10;;
